Valley Peak, Santa Cruz Island Reserve, California Weather observations

Data are for 10 minute period ending at time listed.
 Day   Time   Solar   Ave.   Ave.  Ave.  Vector  Max.   Baro.   Total    
  of    of     Rad.   Air    Rel.  Wind   Wind   Wind  Press.  Precip.   
Year   Day            Temp.  Hum.  Speed  Dir.   Gust                    
2016   (PST)  Kw/m2    F      %     mph   deg.    mph    mb.     in.     
-------------------------------------------------------------------------
 344   16:00   0.10   65.4    60    8.4   311    11.1   970.8    0.00 
 344   16:10   0.09   65.2    61    8.2   307    13.4   971.1    0.00 
 344   16:20   0.06   64.7    63    7.7   316    13.1   970.6    0.00 
 344   16:30   0.04   64.3    61   11.2   296    15.8   970.5    0.00 
 344   16:40   0.02   63.8    63   11.3   291    16.1   970.4    0.00 
 344   16:50   0.00   62.9    66   11.0   288    16.9   970.4    0.00 
 344   17:00   0.00   61.5    71    8.2   299    13.9   970.4    0.00 
 344   17:10   0.00   61.1    72    9.1   303    16.1   970.5    0.00 
 344   17:20   0.00   61.4    71    9.8   309    18.0   970.6    0.00 
 344   17:30   0.00   61.3    72    8.9   304    14.5   970.8    0.00 
 344   17:40   0.00   61.2    73   12.5   307    20.3   970.7    0.00 
 344   17:50   0.00   61.6    72   13.5   311    21.8   970.6    0.00 
 344   18:00   0.00   61.7    72   14.8   309    25.6   970.7    0.00 
 344   18:10   0.00   61.7    72   15.2   312    22.6   970.7    0.00 
 344   18:20   0.00   61.7    73   16.4   313    24.3   970.7    0.00 
 344   18:30   0.00   61.8    72   15.3   314    24.8   970.6    0.00 
 344   18:40   0.00   61.9    72   13.4   322    23.4   970.6    0.00 
 344   18:50   0.00   62.1    72   15.5   316    23.6   970.6    0.00 
 344   19:00   0.00   62.4    71   16.4   316    24.5   970.7    0.00 
 344   19:10   0.00   62.2    72   16.2   313    26.4   970.8    0.00 
 344   19:20   0.00   62.0    72   16.7   320    28.9   970.9    0.00 
 344   19:30   0.00   61.6    76   16.5   318    27.0   970.9    0.00 
 344   19:40   0.00   61.0    78   16.5   318    27.2   971.0    0.00 
 344   19:50   0.00   60.9    80   18.6   315    28.4   971.0    0.00 
 344   20:00   0.00   61.1    78   17.9   313    25.6   971.1    0.00 
 344   20:10   0.00   61.3    77   19.6   315    29.8   971.1    0.00 
 344   20:20   0.00   61.2    78   17.0   320    27.5   971.1    0.00 
 344   20:30   0.00   60.9    80   17.2   322    31.0   971.1    0.00 
 344   20:40   0.00   60.5    82   14.5   330    24.9   971.1    0.00 
 344   20:50   0.00   60.3    82   15.4   337    24.3   971.2    0.00 
 344   21:00   0.00   60.1    83   13.1   344    22.9   971.3    0.00 
 344   21:10   0.00   59.6    85   13.2   330    22.8   971.4    0.00 
 344   21:20   0.00   60.0    84   13.1   325    21.7   971.6    0.00 
 344   21:30   0.00   60.1    83   12.0   329    19.4   971.7    0.00 
 344   21:40   0.00   60.2    82   11.2   328    22.1   971.6    0.00 
 344   21:50   0.00   60.7    80   10.6   333    19.9   971.5    0.00 
 344   22:00   0.00   60.9    79   12.4   330    20.8   971.5    0.00 
 344   22:10   0.00   60.9    79   14.0   344    23.3   971.5    0.00 
 344   22:20   0.00   61.0    79   17.6   338    27.2   971.5    0.00 
 344   22:30   0.00   61.0    79   14.4   339    28.3   971.6    0.00 
 344   22:40   0.00   60.9    79   12.5   352    23.7   971.6    0.00 
 344   22:50   0.00   60.8    79   10.4   354    20.8   971.7    0.00 
 344   23:00   0.00   60.7    79    9.6   348    18.9   971.7    0.00 
 344   23:10   0.00   60.7    80   11.5   357    22.6   971.6    0.00 
 344   23:20   0.00   60.5    80   11.3   351    18.6   971.6    0.00 
 344   23:30   0.00   60.4    81   11.1   349    18.5   971.5    0.00 
 344   23:40   0.00   60.1    82   12.4   356    20.0   971.3    0.00 
 344   23:50   0.00   60.0    82   10.9   352    20.6   971.1    0.00 
 345    0:00   0.00   60.1    81   10.4   336    19.1   971.2    0.00 
 345    0:10   0.00   60.2    82   10.6   337    21.0   971.4    0.00 
 345    0:20   0.00   59.9    84   12.3   344    22.0   971.3    0.00 
 345    0:30   0.00   59.6    85   13.9   345    24.3   971.2    0.00 
 345    0:40   0.00   59.3    86   12.1   348    20.9   971.1    0.00 
 345    0:50   0.00   59.0    86   10.8   356    18.1   971.0    0.00 
 345    1:00   0.00   58.9    87   10.2   357    20.8   971.0    0.00 
 345    1:10   0.00   59.0    86   11.9   356    20.8   970.9    0.00 
 345    1:20   0.00   58.8    87   11.2   349    19.6   971.0    0.00 
 345    1:30   0.00   58.8    87   10.9   346    19.6   971.0    0.00 
 345    1:40   0.00   58.6    88   10.3   350    20.4   971.0    0.00 
 345    1:50   0.00   58.7    88   13.6   331    23.8   971.2    0.00 
 345    2:00   0.00   58.4    88   11.8   350    19.2   971.2    0.00 
 345    2:10   0.00   58.0    90   11.0   350    19.3   971.2    0.00 
 345    2:20   0.00   57.9    90   11.4   359    18.8   971.2    0.00 
 345    2:30   0.00   56.8    93   12.6    15    17.5   971.1    0.00 
 345    2:40   0.00   54.9    96   14.0    19    19.2   971.1    0.00 
 345    2:50   0.00   54.1    98   13.7    19    17.5   971.1    0.00 
 345    3:00   0.00   53.8    99   13.0    24    18.0   971.2    0.00 
 345    3:10   0.00   53.8    99   12.1    26    16.1   971.2    0.00 
 345    3:20   0.00   54.1   100   10.6    22    15.6   971.0    0.00 
 345    3:30   0.00   53.9   100   10.4    17    17.5   970.9    0.00 
 345    3:40   0.00   53.8   100    9.6    15    15.6   970.8    0.00 
 345    3:50   0.00   54.6   100    9.3   346    15.2   970.9    0.00 
 345    4:00   0.00   55.3   100   10.9   354    18.0   970.8    0.00 
 345    4:10   0.00   55.1   100    7.2   357    13.5   970.9    0.00 
 345    4:20   0.00   56.1   100    8.5   338    13.7   970.8    0.00 
 345    4:30   0.00   56.3   100    7.4   320    11.9   970.8    0.00 
 345    4:40   0.00   56.6    99    9.2   334    17.2   970.8    0.00 
 345    4:50   0.00   56.5    98    9.0   343    15.3   970.7    0.00 
 345    5:00   0.00   57.0    96   10.2   331    17.5   970.7    0.00 
 345    5:10   0.00   57.3    94    8.8   341    15.8   970.7    0.00 
 345    5:20   0.00   56.9    95    7.8   343    14.9   970.7    0.00 
 345    5:30   0.00   57.1    94    9.5   342    17.2   970.7    0.00 
 345    5:40   0.00   57.3    94   11.2   332    19.3   970.8    0.00 
 345    5:50   0.00   57.8    93   13.5   324    25.3   970.9    0.00 
 345    6:00   0.00   57.9    92   12.7   330    21.9   971.0    0.00 
 345    6:10   0.00   57.8    93   11.2   339    19.4   971.0    0.00 
 345    6:20   0.00   57.8    93   11.5   344    17.8   971.1    0.00 
 345    6:30   0.00   57.6    93   11.9   353    23.1   971.0    0.00 
 345    6:40   0.00   57.4    93    9.6   358    17.0   970.9    0.00 
 345    6:50   0.00   57.3    94    9.8     4    20.4   970.9    0.00 
 345    7:00   0.00   57.3    93    9.3     1    20.6   970.8    0.00 
 345    7:10   0.01   57.5    92    7.2   352    12.0   970.9    0.00 
 345    7:20   0.02   57.7    92    8.4   333    23.2   971.0    0.00 
 345    7:30   0.04   58.2    90   10.8   308    21.6   971.1    0.00 
 345    7:40   0.04   58.5    89    8.7   325    18.0   971.2    0.00 
 345    7:50   0.05   58.5    90    8.2   348    20.7   971.3    0.00 
 345    8:00   0.09   58.5    90    5.7   353    15.9   971.3    0.00 
 345    8:10   0.14   59.4    87   10.7   319    24.8   971.3    0.00 
 345    8:20   0.18   60.5    84   10.8   325    20.1   971.3    0.00 
 345    8:30   0.19   61.0    82   11.0   319    18.0   971.3    0.00 
 345    8:40   0.24   61.4    81    7.3   337    14.5   971.1    0.00 
 345    8:50   0.25   61.4    81    9.0   345    17.0   971.2    0.00 
 345    9:00   0.23   61.6    81    8.7   309    16.5   971.5    0.00 
 345    9:10   0.22   62.2    80    7.6   296    13.3   971.5    0.00 
 345    9:20   0.20   62.5    79    5.9   322    13.4   971.6    0.00 
 345    9:30   0.30   62.7    77    7.8   306    15.4   971.6    0.00 
 345    9:40   0.36   63.8    75    5.5   310    12.2   971.6    0.00 
 345    9:50   0.40   64.5    72    7.3   316    14.2   971.7    0.00 
 345   10:00   0.41   64.6    72    7.6   334    14.5   971.7    0.00 
 345   10:10   0.42   64.3    72    8.6   335    15.6   971.7    0.00 
 345   10:20   0.44   64.7    71    7.4   336    14.5   971.6    0.00 
 345   10:30   0.47   64.9    70    7.9   339    14.8   971.7    0.00 
 345   10:40   0.50   64.8    70   10.6   340    20.0   971.6    0.00 
 345   10:50   0.48   63.8    71   14.4   330    23.0   971.4    0.00 
 345   11:00   0.39   63.3    71   14.0   336    22.8   971.2    0.00 
 345   11:10   0.42   63.7    71   10.3   339    20.5   971.1    0.00 
 345   11:20   0.41   63.9    70   10.2   355    19.1   970.9    0.00 
 345   11:30   0.54   64.2    70   13.9   329    22.9   970.8    0.00 
 345   11:40   0.53   64.3    69   14.2   328    23.5   970.7    0.00 
 345   11:50   0.54   65.1    68    9.6   341    24.4   970.4    0.00 
 345   12:00   0.54   65.9    66    9.2   338    16.3   970.3    0.00 
 345   12:10   0.53   66.3    66   10.1   324    19.6   970.2    0.00 
 345   12:20   0.43   65.8    67    9.1   324    15.9   970.1    0.00 
 345   12:30   0.58   67.2    65    7.8   319    15.7   970.0    0.00 
 345   12:40   0.52   67.0    65    6.6   327    14.1   970.0    0.00 
 345   12:50   0.43   67.3    65    5.3   318    10.3   969.9    0.00 
 345   13:00   0.49   67.6    65    6.3   305    11.4   969.8    0.00 
 345   13:10   0.42   67.9    66    4.9   283     9.8   969.7    0.00 
 345   13:20   0.34   65.3    72    6.9   260    12.3   969.5    0.00 
 345   13:30   0.41   65.7    70    5.0   277    10.3   969.3    0.00 
 345   13:40   0.35   65.4    71    7.6   257    13.6   969.2    0.00 
 345   13:50   0.38   64.8    72    6.9   258    12.2   969.1    0.00 
 345   14:00   0.38   65.1    72    6.6   243    11.8   969.1    0.00 
 345   14:10   0.35   66.3    69    4.1   275     9.4   969.0    0.00 
 345   14:20   0.34   67.0    66    5.8   334    15.9   969.0    0.00 
 345   14:30   0.35   66.9    66    4.0   303     8.5   969.0    0.00 
 345   14:40   0.32   67.6    66    2.6   245     8.0   969.1    0.00 
 345   14:50   0.29   68.5    64    1.8   262     7.8   969.0    0.00 
 345   15:00   0.27   68.6    64    2.1    38     5.0   969.0    0.00 
 345   15:10   0.28   67.6    66    3.5   226     6.5   969.1    0.00 
 345   15:20   0.26   68.0    65    1.3    35     4.1   969.0    0.00 
 345   15:30   0.12   66.8    64    5.1   312    10.2   968.9    0.00 
 345   15:40   0.06   63.2    69    3.6   306     8.7   968.8    0.00 
 345   15:50   0.05   62.4    73    2.6   259     7.4   968.7    0.00 

Return to Valley Peak, Santa Cruz Island Reserve graphs page.


Western Regional Climate Center,wrcc@dri.edu